Time;durP1;ratioP1;P1;durP2;ratioP2;P2;SDS_P1;SDS_P2;PMS_P1;PMS_P2;Temp;Humidity;BMP_temperature;BMP_pressure;BME280_temperature;BME280_humidity;BME280_pressure;Samples;Min_cycle;Max_cycle;Signal;HPM_P1;HPM_P2
2022/07/21 00:03:33;;;;;;;;;;;;;;;20.34;100.00;95927.31;10507405;28;1868;-83
2022/07/21 00:08:37;;;;;;;;;;;;;;;20.72;100.00;95924.47;10499589;28;1828;-80
2022/07/21 00:13:41;;;;;;;;;;;;;;;20.62;100.00;95933.06;10543263;28;1960;-79
2022/07/21 00:18:45;;;;;;;;;;;;;;;20.44;100.00;95929.66;10547378;28;1501;-80
2022/07/21 00:23:48;;;;;;;;;;;;;;;20.71;100.00;95924.81;10514785;28;1841;-78
2022/07/21 00:28:52;;;;;;;;;;;;;;;20.78;100.00;95925.84;10491510;28;1890;-81
2022/07/21 00:33:56;;;;;;;;;;;;;;;20.73;100.00;95938.91;10478499;28;1973;-80
2022/07/21 00:39:00;;;;;;;;;;;;;;;21.19;100.00;95928.84;10480247;28;1895;-81
2022/07/21 00:44:04;;;;;;;;;;;;;;;21.39;100.00;95960.03;10491947;28;2173;-80
2022/07/21 00:49:09;;;;;;;;;;;;;;;21.58;100.00;95958.38;10478537;28;1842;-80
2022/07/21 00:54:12;;;;;;;;;;;;;;;21.24;100.00;95954.03;10491105;28;1983;-81
2022/07/21 00:59:16;;;;;;;;;;;;;;;21.21;100.00;95948.44;10477909;28;1880;-80
2022/07/21 01:04:19;;;;;;;;;;;;;;;21.36;100.00;95955.22;10495302;28;1852;-80
2022/07/21 01:09:24;;;;;;;;;;;;;;;21.33;100.00;95964.13;10494992;28;1884;-81
2022/07/21 01:14:28;;;;;;;;;;;;;;;21.32;100.00;95960.59;10482923;28;1928;-82
2022/07/21 01:19:35;;;;;;;;;;;;;;;21.11;100.00;95965.25;10481469;28;1903;-80
2022/07/21 01:24:49;;;;;;;;;;;;;;;20.86;100.00;95972.56;10498754;28;1833;-83
2022/07/21 01:29:53;;;;;;;;;;;;;;;20.79;100.00;95953.97;10495858;28;2473;-81
2022/07/21 01:35:17;;;;;;;;;;;;;;;20.80;100.00;95941.91;10495127;28;1912;-81
2022/07/21 01:45:44;;;;;;;;;;;;;;;20.84;100.00;95920.19;10498687;28;1780;-80
2022/07/21 01:50:48;;;;;;;;;;;;;;;20.96;100.00;95926.50;10507694;28;1952;-83
2022/07/21 01:55:51;;;;;;;;;;;;;;;21.39;100.00;95947.16;10483000;28;1916;-82
2022/07/21 02:00:55;;;;;;;;;;;;;;;21.28;100.00;95943.22;10502169;28;1819;-82
2022/07/21 02:05:59;;;;;;;;;;;;;;;21.29;100.00;95950.31;10482602;28;1866;-81
2022/07/21 02:11:03;;;;;;;;;;;;;;;21.09;100.00;95926.53;10473730;28;1989;-82
2022/07/21 02:16:07;;;;;;;;;;;;;;;21.26;100.00;95940.03;10486710;28;1860;-82
2022/07/21 02:21:11;;;;;;;;;;;;;;;21.31;100.00;95937.09;10500386;28;1891;-83
2022/07/21 02:26:15;;;;;;;;;;;;;;;21.45;100.00;95948.53;10503433;28;1811;-84
2022/07/21 02:31:19;;;;;;;;;;;;;;;21.42;100.00;95949.19;10485247;28;1973;-81
2022/07/21 02:36:23;;;;;;;;;;;;;;;21.41;100.00;95958.56;10497012;28;1997;-83
2022/07/21 02:41:27;;;;;;;;;;;;;;;21.88;96.95;95968.28;10489170;28;1917;-84
2022/07/21 02:46:31;;;;;;;;;;;;;;;22.08;95.84;95964.69;10495218;28;1559;-83
2022/07/21 02:51:35;;;;;;;;;;;;;;;21.82;98.57;95967.72;10528594;28;1899;-80
2022/07/21 02:56:38;;;;;;;;;;;;;;;21.74;99.53;95955.75;10546531;28;1897;-81
2022/07/21 03:01:43;;;;;;;;;;;;;;;21.56;100.00;95951.63;10504789;28;1817;-81
2022/07/21 03:06:47;;;;;;;;;;;;;;;21.78;99.09;95951.19;10495522;28;1936;-82
2022/07/21 03:11:51;;;;;;;;;;;;;;;21.76;98.91;95958.16;10491809;28;2019;-81
2022/07/21 03:16:57;;;;;;;;;;;;;;;21.76;98.56;95953.50;10489498;28;2106;-81
2022/07/21 03:22:01;;;;;;;;;;;;;;;21.97;97.48;95952.59;10493409;28;1944;-82
2022/07/21 03:27:04;;;;;;;;;;;;;;;22.09;96.98;95953.41;10506496;28;1960;-81
2022/07/21 03:32:10;;;;;;;;;;;;;;;22.22;95.40;95953.41;10482513;28;2026;-84
2022/07/21 03:37:13;;;;;;;;;;;;;;;22.22;95.13;95958.88;10499059;28;1943;-80
2022/07/21 03:42:17;;;;;;;;;;;;;;;22.04;97.88;95950.88;10493418;28;1960;-81
2022/07/21 03:47:20;;;;;;;;;;;;;;;22.10;96.50;95944.06;10487371;28;1972;-82
2022/07/21 03:52:24;;;;;;;;;;;;;;;22.06;96.91;95951.31;10489932;28;1927;-84
2022/07/21 03:57:28;;;;;;;;;;;;;;;22.26;94.86;95981.69;10487365;28;2065;-80
2022/07/21 04:02:31;;;;;;;;;;;;;;;22.51;93.13;95990.66;10482827;28;1935;-84
2022/07/21 04:07:35;;;;;;;;;;;;;;;22.28;95.88;95996.63;10483528;28;2028;-81
2022/07/21 04:12:40;;;;;;;;;;;;;;;21.86;99.84;95994.06;10492340;28;2056;-81
2022/07/21 04:17:45;;;;;;;;;;;;;;;21.97;98.57;95994.44;10490967;28;2088;-82
2022/07/21 04:22:50;;;;;;;;;;;;;;;21.70;100.00;96000.56;10498189;28;1997;-83
2022/07/21 04:27:54;;;;;;;;;;;;;;;21.69;100.00;95999.75;10494725;28;1999;-83
2022/07/21 04:32:58;;;;;;;;;;;;;;;21.69;100.00;96001.69;10486099;28;1977;-82
2022/07/21 04:38:01;;;;;;;;;;;;;;;21.72;100.00;96009.22;10489078;28;1720;-83
2022/07/21 04:43:05;;;;;;;;;;;;;;;21.61;99.93;96021.72;10503727;28;1951;-81
2022/07/21 04:48:09;;;;;;;;;;;;;;;21.48;100.00;96021.69;10487192;28;2003;-83
2022/07/21 04:53:13;;;;;;;;;;;;;;;21.38;100.00;96024.88;10498670;28;2006;-82
2022/07/21 04:58:17;;;;;;;;;;;;;;;21.53;100.00;96028.91;10495503;28;2003;-81
2022/07/21 05:03:20;;;;;;;;;;;;;;;21.64;99.24;96037.47;10480147;28;2003;-83
2022/07/21 05:08:26;;;;;;;;;;;;;;;21.57;99.76;96044.31;10471211;28;2101;-83
2022/07/21 05:13:29;;;;;;;;;;;;;;;21.59;99.67;96049.44;10498351;28;1986;-84
2022/07/21 05:18:33;;;;;;;;;;;;;;;21.69;99.12;96061.88;10493197;28;1982;-83
2022/07/21 05:23:36;;;;;;;;;;;;;;;21.59;100.00;96063.09;10486942;28;1976;-81
2022/07/21 05:28:40;;;;;;;;;;;22.10;99.90;;;21.64;99.94;96070.31;10491756;28;1980;-84
2022/07/21 05:33:44;;;;;;;;;;;22.20;99.90;;;21.66;100.00;96070.75;10471980;28;1985;-83
2022/07/21 05:38:47;;;;;;;;;;;22.10;99.90;;;21.80;99.82;96079.47;10488331;28;1964;-85
2022/07/21 05:43:50;;;;;;;;;;;22.20;99.90;;;22.00;97.60;96075.84;10492102;28;2047;-82
2022/07/21 05:48:53;;;;;;;;;;;22.50;99.90;;;21.98;98.19;96080.06;10496649;28;1980;-84
2022/07/21 05:53:57;;;;;;;;;;;22.50;99.90;;;22.43;95.83;96079.25;10487191;28;2009;-82
2022/07/21 05:59:01;;;;;;;;;;;;;;;22.69;94.17;96089.84;10473391;28;2012;-79
2022/07/21 06:04:04;;;;;;;;;;;;;;;22.18;96.21;96089.38;10485734;28;1960;-81
2022/07/21 06:09:08;;;;;;;;;;;;;;;22.27;95.90;96090.09;10477040;28;1909;-79
2022/07/21 06:14:12;;;;;;;;;;;;;;;22.21;96.61;96088.72;10487976;28;1967;-79
2022/07/21 06:19:16;;;;;;;;;;;;;;;22.20;96.98;96096.09;10485348;28;1978;-80
2022/07/21 06:24:22;;;;;;;;;;;;;;;22.28;97.29;96102.63;10487867;28;1976;-80
2022/07/21 06:29:30;;;;;;;;;;;;;;;22.61;95.38;96103.34;10492137;28;1881;-81
2022/07/21 06:34:36;;;;;;;;;;;;;;;22.72;93.84;96111.09;10474153;28;2064;-80
2022/07/21 06:39:41;;;;;;;;;;;;;;;22.39;96.68;96117.47;10477533;28;2022;-79
2022/07/21 06:44:45;;;;;;;;;;;;;;;22.08;99.26;96120.72;10489033;28;1909;-84
2022/07/21 06:49:55;;;;;;;;;;;;;;;22.25;99.39;96127.94;10492168;28;1964;-80
2022/07/21 06:55:06;;;;;;;;;;;;;;;22.17;100.00;96131.59;10487273;28;2044;-80
2022/07/21 07:00:10;;;;;;;;;;;;;;;22.60;97.29;96128.34;10476412;28;2041;-81
2022/07/21 07:05:19;;;;;;;;;;;;;;;23.26;92.78;96138.25;10476436;28;1950;-81
2022/07/21 07:10:24;;;;;;;;;;;;;;;22.85;95.54;96129.13;10474341;28;1963;-84
2022/07/21 07:15:28;;;;;;;;;;;;;;;22.99;94.97;96143.31;10482824;28;1998;-80
2022/07/21 07:20:32;;;;;;;;;;;;;;;22.44;98.22;96132.88;10508392;28;1853;-82
2022/07/21 07:25:35;;;;;;;;;;;;;;;22.48;96.75;96137.34;10518192;28;1893;-82
2022/07/21 07:30:38;;;;;;;;;;;;;;;23.16;91.93;96142.28;10489187;28;2014;-81
2022/07/21 07:35:42;;;;;;;;;;;;;;;23.48;89.29;96143.22;10472517;28;1977;-80
2022/07/21 07:40:46;;;;;;;;;;;;;;;23.45;88.83;96141.16;10499178;28;1982;-80
2022/07/21 07:45:50;;;;;;;;;;;;;;;23.07;89.69;96144.31;10476780;28;2136;-80
2022/07/21 07:50:53;;;;;;;;;;;;;;;23.45;87.67;96149.38;10486414;28;1902;-80
2022/07/21 07:55:58;;;;;;;;;;;;;;;23.05;88.24;96147.41;10473847;28;1941;-81
2022/07/21 08:01:02;;;;;;;;;;;;;;;22.60;91.68;96161.22;10485762;28;1987;-80
2022/07/21 08:06:10;;;;;;;;;;;;;;;22.29;94.37;96162.53;10490534;28;1968;-80
2022/07/21 08:11:15;;;;;;;;;;;;;;;22.08;95.80;96156.31;10501100;28;1933;-81
2022/07/21 08:16:20;;;;;;;;;;;;;;;22.15;95.82;96164.78;10517369;28;1981;-80
2022/07/21 08:21:30;;;;;;;;;;;;;;;22.90;91.34;96159.06;10506788;28;1956;-81
2022/07/21 08:26:53;;;;;;;;;;;;;;;23.20;87.87;96160.41;10504290;28;2063;-80
2022/07/21 08:31:57;;;;;;;;;;;;;;;23.80;84.99;96159.84;10505087;28;2063;-81
2022/07/21 08:37:01;;;;;;;;;;;;;;;24.04;82.96;96156.97;10511929;28;1976;-81
2022/07/21 08:42:05;;;;;;;;;;;;;;;23.61;83.78;96161.28;10503769;28;1983;-81
2022/07/21 08:47:09;;;;;;;;;;;;;;;22.97;89.38;96156.56;10508478;28;1905;-80
2022/07/21 08:52:12;;;;;;;;;;;;;;;22.48;93.06;96155.72;10500208;28;1964;-79
2022/07/21 08:57:16;;;;;;;;;;;;;;;22.40;95.13;96168.38;10478921;28;1839;-81
2022/07/21 09:02:20;;;;;;;;;;;;;;;22.03;96.20;96176.47;10487539;28;1926;-80
2022/07/21 09:07:24;;;;;;;;;;;;;;;21.98;96.85;96173.94;10480849;28;2004;-80
2022/07/21 09:12:27;;;;;;;;;;;;;;;22.20;94.67;96174.72;10474112;28;1977;-80
2022/07/21 09:17:31;;;;;;;;;;;;;;;21.96;95.89;96176.22;10492363;28;1942;-81
2022/07/21 09:22:55;;;;;;;;;;;;;;;21.57;97.79;96178.34;10515302;28;1964;-81
2022/07/21 09:28:05;;;;;;;;;;;;;;;21.65;99.04;96175.84;10502417;28;1927;-80
2022/07/21 09:33:09;;;;;;;;;;;;;;;21.91;96.99;96183.84;10496615;28;1968;-80
2022/07/21 09:38:13;;;;;;;;;;;;;;;22.35;93.87;96171.34;10489016;28;2073;-79
2022/07/21 09:43:17;;;;;;;;;;;;;;;22.22;93.19;96172.44;10495921;28;1897;-79
2022/07/21 09:48:22;;;;;;;;;;;;;;;22.46;91.99;96179.91;10507585;28;1981;-80
2022/07/21 09:53:34;;;;;;;;;;;;;;;22.54;90.92;96188.03;10523833;28;1956;-83
2022/07/21 09:58:37;;;;;;;;;;;;;;;21.99;93.97;96200.16;10512759;28;1856;-81
2022/07/21 10:03:41;;;;;;;;;;;;;;;21.70;97.25;96197.56;10475984;28;1848;-80
2022/07/21 10:08:44;;;;;;;;;;;;;;;20.80;100.00;96209.63;10483600;28;1832;-79
2022/07/21 10:13:49;;;;;;;;;;;;;;;20.44;100.00;96210.09;10474134;28;1918;-80
2022/07/21 10:18:53;;;;;;;;;;;;;;;20.32;100.00;96224.41;10515326;28;1868;-81
2022/07/21 10:23:58;;;;;;;;;;;;;;;20.44;100.00;96226.47;10531563;28;1939;-81
2022/07/21 10:29:01;;;;;;;;;;;;;;;20.83;100.00;96228.13;10505486;28;1630;-80
2022/07/21 10:34:05;;;;;;;;;;;;;;;20.81;100.00;96224.13;10484537;28;1922;-81
2022/07/21 10:39:10;;;;;;;;;;;;;;;20.69;100.00;96230.28;10486554;28;1842;-80
2022/07/21 10:44:13;;;;;;;;;;;;;;;20.99;100.00;96226.44;10486245;28;1872;-78
2022/07/21 10:49:16;;;;;;;;;;;;;;;21.19;100.00;96215.91;10488569;28;1950;-78
2022/07/21 10:54:20;;;;;;;;;;;;;;;21.13;100.00;96211.75;10474235;28;1917;-81
2022/07/21 10:59:24;;;;;;;;;;;;;;;21.40;100.00;96211.28;10490536;28;1825;-77
2022/07/21 11:04:28;;;;;;;;;;;;;;;21.85;100.00;96222.34;10481694;28;1840;-81
2022/07/21 11:09:31;;;;;;;;;;;;;;;22.08;100.00;96211.84;10468045;28;1825;-80
2022/07/21 11:14:35;;;;;;;;;;;;;;;22.22;100.00;96211.59;10527327;28;1936;-80
2022/07/21 11:19:38;;;;;;;;;;;;;;;21.93;100.00;96209.72;10494429;28;1956;-81
2022/07/21 11:24:42;;;;;;;;;;;;;;;21.83;100.00;96204.69;10495833;28;1877;-80
2022/07/21 11:29:48;;;;;;;;;;;;;;;22.02;100.00;96202.25;10493370;28;2027;-81
2022/07/21 11:34:52;;;;;;;;;;;;;;;22.13;100.00;96199.91;10491252;28;1973;-82
2022/07/21 11:39:56;;;;;;;;;;;;;;;22.35;100.00;96196.78;10479392;28;1828;-79
2022/07/21 11:44:59;;;;;;;;;;;;;;;22.56;100.00;96193.97;10476512;28;1818;-80
2022/07/21 11:50:03;;;;;;;;;;;;;;;22.37;100.00;96193.69;10488734;28;1876;-80
2022/07/21 11:55:06;;;;;;;;;;;;;;;22.71;100.00;96188.94;10501109;28;1906;-79
2022/07/21 12:00:10;;;;;;;;;;;;;;;23.02;99.72;96188.41;10476356;28;1904;-79
2022/07/21 12:05:15;;;;;;;;;;;;;;;23.12;96.91;96183.28;10493189;28;1844;-80
2022/07/21 12:10:19;;;;;;;;;;;;;;;23.22;97.02;96182.00;10486042;28;1813;-81
2022/07/21 12:15:23;;;;;;;;;;;;;;;23.58;93.76;96183.88;10493976;28;1989;-80
2022/07/21 12:20:26;;;;;;;;;;;;;;;24.19;90.83;96189.16;10480750;28;1924;-80
2022/07/21 12:25:29;;;;;;;;;;;;;;;24.39;87.61;96179.13;10489597;28;1800;-79
2022/07/21 12:30:33;;;;;;;;;;;;;;;24.70;85.37;96175.59;10495365;28;1822;-80
2022/07/21 12:35:37;;;;;;;;;;;;;;;24.74;85.94;96181.97;10497230;28;1959;-79
2022/07/21 12:40:40;;;;;;;;;;;;;;;24.51;83.57;96170.00;10502278;28;1862;-81
2022/07/21 12:46:04;;;;;;;;;;;;;;;24.73;81.77;96165.84;10514942;28;1521;-79
2022/07/21 12:51:09;;;;;;;;;;;;;;;25.02;80.65;96156.34;10508458;28;1999;-82
2022/07/21 12:56:12;;;;;;;;;;;;;;;25.53;76.95;96157.13;10512742;28;1956;-81
2022/07/21 13:01:16;;;;;;;;;;;;;;;25.88;73.77;96148.81;10512588;28;1855;-78
2022/07/21 13:06:19;;;;;;;;;;;;;;;26.06;70.32;96151.13;10493465;28;1939;-79
2022/07/21 13:11:23;;;;;;;;;;;;;;;25.11;73.16;96147.91;10503921;28;1880;-80
2022/07/21 13:16:26;;;;;;;;;;;;;;;24.76;75.23;96149.44;10496068;28;1907;-81
2022/07/21 13:21:30;;;;;;;;;;;;;;;24.98;76.08;96148.00;10477799;28;1867;-81
2022/07/21 13:26:33;;;;;;;;;;;;;;;25.14;75.38;96144.47;10484375;28;1871;-81
2022/07/21 13:31:37;;;;;;;;;;;;;;;25.27;74.60;96151.44;10478139;28;1864;-82
2022/07/21 13:36:41;;;;;;;;;;;;;;;25.83;68.36;96146.38;10486748;28;1985;-81
2022/07/21 13:41:46;;;;;;;;;;;;;;;25.25;67.20;96131.72;10487288;28;1835;-81
2022/07/21 13:47:10;;;;;;;;;;;;;;;25.75;67.70;96132.81;10492680;28;1857;-82
2022/07/21 13:52:14;;;;;;;;;;;;;;;25.74;64.84;96142.22;10474118;28;1923;-80
2022/07/21 13:57:18;;;;;;;;;;;;;;;25.92;63.40;96137.06;10492096;28;1922;-80
2022/07/21 14:02:22;;;;;;;;;;;;;;;26.17;63.85;96138.34;10486587;28;1876;-82
2022/07/21 14:07:25;;;;;;;;;;;;;;;26.84;60.58;96130.47;10482367;28;1796;-81
2022/07/21 14:12:29;;;;;;;;;;;;;;;26.43;61.36;96134.13;10493333;28;1967;-81
2022/07/21 14:17:34;;;;;;;;;;;;;;;26.62;60.96;96129.31;10491200;28;1972;-81
2022/07/21 14:22:37;;;;;;;;;;;;;;;27.25;58.47;96124.41;10474412;28;1849;-80
2022/07/21 14:27:41;;;;;;;;;;;27.50;99.90;;;27.28;56.61;96112.59;10474332;28;1835;-81
2022/07/21 14:32:46;;;;;;;;;;;27.70;99.90;;;27.84;54.88;96112.56;10487195;28;1599;-81
2022/07/21 14:37:51;;;;;;;;;;;;;;;27.37;55.62;96105.66;10472188;28;1914;-80
2022/07/21 14:42:55;;;;;;;;;;;;;;;27.43;55.67;96104.16;10491078;28;1817;-82
2022/07/21 14:47:58;;;;;;;;;;;;;;;27.72;53.18;96107.28;10496561;28;1891;-82
2022/07/21 14:53:02;;;;;;;;;;;;;;;27.42;54.72;96102.56;10502204;28;1887;-80
2022/07/21 14:58:07;;;;;;;;;;;;;;;28.06;52.85;96096.22;10501092;28;1918;-79
2022/07/21 15:03:14;;;;;;;;;;;;;;;28.27;51.91;96088.16;10500392;28;1789;-81
2022/07/21 15:08:17;;;;;;;;;;;;;;;28.53;49.86;96082.47;10499285;28;1888;-78
2022/07/21 15:13:21;;;;;;;;;;;;;;;28.20;49.43;96079.78;10494625;28;1906;-79
2022/07/21 15:18:25;;;;;;;;;;;;;;;28.07;49.89;96084.81;10494105;28;2183;-81
2022/07/21 15:23:28;;;;;;;;;;;;;;;28.05;51.56;96072.53;10489467;28;1842;-80
2022/07/21 15:28:32;;;;;;;;;;;;;;;27.57;53.30;96075.13;10492112;28;1927;-81
2022/07/21 15:33:36;;;;;;;;;;;;;;;27.38;53.40;96070.56;10494013;28;1910;-80
2022/07/21 15:38:40;;;;;;;;;;;;;;;27.24;53.70;96073.16;10489063;28;1918;-79
2022/07/21 15:43:44;;;;;;;;;;;;;;;27.24;55.37;96067.63;10496564;28;1784;-79
2022/07/21 15:48:51;;;;;;;;;;;;;;;27.58;53.25;96051.88;10480054;28;1879;-81
2022/07/21 15:53:54;;;;;;;;;;;;;;;28.27;50.73;96063.28;10495013;28;1906;-80
2022/07/21 16:04:16;;;;;;;;;;;;;;;27.32;52.69;96059.06;10486546;28;1780;-79
2022/07/21 16:09:19;;;;;;;;;;;;;;;27.14;52.94;96055.25;10486027;28;1482;-79
2022/07/21 16:14:23;;;;;;;;;;;;;;;26.99;53.51;96053.47;10493582;28;1984;-80
2022/07/21 16:19:26;;;;;;;;;;;;;;;27.09;54.48;96050.84;10487144;28;2111;-77
2022/07/21 16:24:29;;;;;;;;;;;;;;;27.51;52.99;96046.25;10487569;28;1773;-80
2022/07/21 16:29:33;;;;;;;;;;;;;;;27.29;54.19;96043.22;10505606;28;1910;-79
2022/07/21 16:34:37;;;;;;;;;;;;;;;27.01;55.79;96029.84;10508162;28;1910;-80
2022/07/21 16:39:40;;;;;;;;;;;;;;;26.72;56.67;96025.91;10489614;28;1887;-76
2022/07/21 16:44:44;;;;;;;;;;;;;;;26.45;58.24;96027.03;10498866;28;1917;-78
2022/07/21 16:49:47;;;;;;;;;;;;;;;26.34;58.42;96032.38;10490541;28;1883;-80
2022/07/21 16:54:50;;;;;;;;;;;;;;;26.08;60.25;96019.31;10500548;28;1958;-78
2022/07/21 16:59:55;;;;;;;;;;;;;;;26.05;60.00;96015.34;10495821;28;1667;-80
2022/07/21 17:04:58;;;;;;;;;;;;;;;25.78;61.25;96017.25;10495030;28;1877;-80
2022/07/21 17:10:02;;;;;;;;;;;;;;;25.64;61.96;96019.72;10481266;28;1919;-79
2022/07/21 17:15:06;;;;;;;;;;;;;;;25.55;62.11;96017.16;10505246;28;1991;-79
2022/07/21 17:20:09;;;;;;;;;;;;;;;25.59;61.95;96015.28;10484687;28;1960;-80
2022/07/21 17:25:13;;;;;;;;;;;;;;;25.39;63.04;96010.97;10498098;28;1480;-79
2022/07/21 17:30:17;;;;;;;;;;;;;;;25.17;64.10;96004.22;10497683;28;1872;-76
2022/07/21 17:35:26;;;;;;;;;;;;;;;25.13;64.73;96006.13;10500400;28;1991;-80
2022/07/21 17:40:30;;;;;;;;;;;;;;;25.06;64.75;96003.22;10493728;28;1575;-79
2022/07/21 17:45:34;;;;;;;;;;;;;;;24.86;65.88;96015.31;10502392;28;1600;-80
2022/07/21 17:50:38;;;;;;;;;;;;;;;24.66;67.63;96015.28;10484929;28;1780;-79
2022/07/21 17:55:41;;;;;;;;;;;;;;;24.52;68.06;96014.97;10484791;28;1898;-79
2022/07/21 18:00:45;;;;;;;;;;;;;;;24.48;69.11;96016.81;10502436;28;1848;-79
2022/07/21 18:05:49;;;;;;;;;;;;;;;24.35;69.48;96009.84;10494065;28;1814;-80
2022/07/21 18:10:52;;;;;;;;;;;;;;;24.21;70.35;96002.84;10497689;28;1927;-84
2022/07/21 18:16:00;;;;;;;;;;;;;;;24.04;72.30;96013.38;10496317;28;1899;-82
2022/07/21 18:21:04;;;;;;;;;;;;;;;23.95;73.10;96016.31;10499819;28;1971;-82
2022/07/21 18:26:12;;;;;;;;;;;;;;;23.99;73.58;96015.25;10483815;28;1970;-80
2022/07/21 18:31:18;;;;;;;;;;;;;;;23.83;74.70;96014.44;10479423;28;1849;-82
2022/07/21 18:36:22;;;;;;;;;;;;;;;23.66;76.65;96014.75;10493278;28;1939;-81
2022/07/21 18:41:26;;;;;;;;;;;;;;;23.60;77.36;96011.47;10482371;28;1882;-83
2022/07/21 18:46:30;;;;;;;;;;;;;;;23.51;77.77;96019.03;10476705;28;1928;-80
2022/07/21 18:51:33;;;;;;;;;;;;;;;23.39;78.30;96016.34;10496643;28;1615;-81
2022/07/21 18:56:37;;;;;;;;;;;;;;;23.25;78.72;96024.19;10493756;28;2166;-83
2022/07/21 19:01:42;;;;;;;;;;;;;;;23.26;78.40;96020.31;10503468;28;1814;-83
2022/07/21 19:06:47;;;;;;;;;;;;;;;23.18;78.37;96025.59;10490406;28;1845;-80
2022/07/21 19:11:51;;;;;;;;;;;;;;;22.98;79.23;96032.06;10484917;28;2031;-82
2022/07/21 19:16:54;;;;;;;;;;;;;;;22.90;79.68;96030.22;10501310;28;1890;-82
2022/07/21 19:21:58;;;;;;;;;;;;;;;22.99;79.60;96036.38;10494922;28;1937;-83
2022/07/21 19:27:02;;;;;;;;;;;;;;;22.78;81.33;96044.75;10495675;28;1781;-82
2022/07/21 19:32:06;;;;;;;;;;;;;;;22.70;82.38;96050.34;10496252;28;1984;-84
2022/07/21 19:37:12;;;;;;;;;;;;;;;22.55;83.89;96044.44;10518482;28;1980;-79
2022/07/21 19:42:16;;;;;;;;;;;;;;;22.49;84.70;96048.53;10538984;28;1784;-81
2022/07/21 19:47:20;;;;;;;;;;;;;;;22.38;85.90;96059.16;10527329;28;1828;-81
2022/07/21 19:52:23;;;;;;;;;;;;;;;22.09;87.66;96049.22;10502211;28;2038;-79
2022/07/21 19:57:27;;;;;;;;;;;;;;;22.06;88.33;96058.06;10504646;28;1983;-82
2022/07/21 20:02:30;;;;;;;;;;;;;;;22.14;88.70;96059.16;10494810;28;1986;-82
2022/07/21 20:07:34;;;;;;;;;;;;;;;22.11;89.16;96055.16;10502133;28;1926;-82
2022/07/21 20:12:37;;;;;;;;;;;;;;;22.13;90.14;96058.34;10495694;28;2144;-81
2022/07/21 20:17:41;;;;;;;;;;;;;;;21.94;92.05;96058.03;10497453;28;1959;-79
2022/07/21 20:22:46;;;;;;;;;;;;;;;21.99;91.66;96057.84;10503216;28;1952;-82
2022/07/21 20:27:50;;;;;;;;;;;;;;;21.76;93.59;96051.19;10507548;28;1631;-82
2022/07/21 20:32:54;;;;;;;;;;;22.70;99.90;;;21.68;94.75;96049.31;10488999;28;2044;-82
2022/07/21 20:37:58;;;;;;;;;;;22.40;99.90;;;21.87;93.51;96052.34;10503020;28;1977;-82
2022/07/21 20:43:01;;;;;;;;;;;22.60;99.90;;;21.88;93.85;96050.41;10508402;28;1835;-85
2022/07/21 20:48:04;;;;;;;;;;;22.70;99.90;;;21.65;95.27;96044.53;10541365;28;3674;-82
2022/07/21 20:53:15;;;;;;;;;;;22.60;99.90;;;21.46;96.40;96048.59;10535025;28;1530;-82
2022/07/21 20:58:34;;;;;;;;;;;22.50;99.90;;;21.48;96.35;96046.31;10491040;28;1966;-83
2022/07/21 21:03:39;;;;;;;;;;;22.40;99.90;;;21.57;96.44;96051.72;10493843;28;1855;-81
2022/07/21 21:08:42;;;;;;;;;;;22.20;99.90;;;21.39;98.56;96053.81;10502170;28;1956;-80
2022/07/21 21:13:45;;;;;;;;;;;22.20;99.90;;;22.08;94.57;96055.81;10484398;28;1884;-81
2022/07/21 21:18:48;;;;;;;;;;;22.50;99.90;;;21.56;98.10;96059.09;10483087;28;2003;-81
2022/07/21 21:23:51;;;;;;;;;;;22.60;99.90;;;21.63;97.36;96057.75;10492388;28;1966;-84
2022/07/21 21:28:54;;;;;;;;;;;22.40;99.90;;;21.49;98.67;96055.31;10501844;28;1964;-83
2022/07/21 21:33:58;;;;;;;;;;;22.40;99.90;;;21.34;100.00;96045.00;10497713;28;1907;-80
2022/07/21 21:39:01;;;;;;;;;;;22.20;99.90;;;21.23;100.00;96055.53;10495699;28;1961;-81
2022/07/21 21:44:07;;;;;;;;;;;22.20;99.90;;;21.41;99.91;96053.47;10498688;28;1980;-83
2022/07/21 21:49:10;;;;;;;;;;;22.20;99.90;;;21.52;99.07;96060.91;10484724;28;1624;-82
2022/07/21 21:54:14;;;;;;;;;;;22.20;99.90;;;21.30;100.00;96055.81;10494609;28;2031;-81
2022/07/21 21:59:17;;;;;;;;;;;22.30;99.90;;;21.29;100.00;96059.69;10500274;28;2008;-81
2022/07/21 22:04:20;;;;;;;;;;;22.10;99.90;;;21.21;100.00;96064.06;10493499;28;1803;-80
2022/07/21 22:09:23;;;;;;;;;;;22.10;99.90;;;21.17;100.00;96051.38;10498339;28;1982;-81
2022/07/21 22:14:27;;;;;;;;;;;22.00;99.90;;;21.33;99.90;96046.94;10490807;28;2054;-80
2022/07/21 22:19:34;;;;;;;;;;;22.10;99.90;;;21.18;100.00;96047.50;10499679;28;1910;-82
2022/07/21 22:24:37;;;;;;;;;;;22.00;99.90;;;21.27;100.00;96051.00;10490450;28;1968;-80
2022/07/21 22:29:41;;;;;;;;;;;22.00;99.90;;;21.03;100.00;96049.72;10498464;28;2000;-84
2022/07/21 22:34:44;;;;;;;;;;;21.90;99.90;;;21.07;100.00;96041.69;10500507;28;1654;-82
2022/07/21 22:39:47;;;;;;;;;;;21.90;99.90;;;21.15;99.42;96040.00;10510349;28;1956;-83
2022/07/21 22:44:51;;;;;;;;;;;21.90;99.90;;;21.00;98.69;96044.94;10488778;28;1929;-83
2022/07/21 22:49:54;;;;;;;;;;;21.80;99.90;;;20.98;98.23;96044.47;10492451;28;1959;-82
2022/07/21 22:54:58;;;;;;;;;;;21.80;99.90;;;20.80;99.42;96037.53;10495262;28;1907;-83
2022/07/21 23:00:01;;;;;;;;;;;21.70;99.90;;;20.63;100.00;96043.13;10483804;28;1913;-82
2022/07/21 23:05:10;;;;;;;;;;;21.60;99.90;;;20.85;98.20;96037.31;10498628;28;1745;-84
2022/07/21 23:10:13;;;;;;;;;;;21.60;99.90;;;20.72;98.10;96035.66;10502174;28;1880;-79
2022/07/21 23:15:16;;;;;;;;;;;21.60;99.90;;;20.75;96.99;96032.28;10492852;28;1898;-80
2022/07/21 23:20:20;;;;;;;;;;;21.50;99.90;;;20.68;96.25;96032.81;10506202;28;1961;-81
2022/07/21 23:25:23;;;;;;;;;;;21.50;99.90;;;20.98;94.42;96033.53;10505242;28;1868;-82
2022/07/21 23:30:26;;;;;;;;;;;21.50;99.90;;;20.84;94.57;96030.28;10500921;28;1866;-81
2022/07/21 23:35:29;;;;;;;;;;;21.60;99.90;;;20.83;93.58;96028.69;10483268;28;1961;-80
2022/07/21 23:40:33;;;;;;;;;;;21.60;99.90;;;20.65;94.05;96029.94;10502312;28;1947;-81
2022/07/21 23:45:36;;;;;;;;;;;21.70;99.90;;;20.52;94.59;96037.22;10496379;28;1796;-85
2022/07/21 23:50:39;;;;;;;;;;;21.50;99.90;;;20.47;94.31;96030.03;10506824;28;2101;-81
2022/07/21 23:55:42;;;;;;;;;;;21.40;99.90;;;20.24;96.26;96023.25;10502242;28;1890;-81
